createdAt,value
2018-03-22T00:00:14.897Z,-3.40
2018-03-22T00:02:44.473Z,-3.50
2018-03-22T00:05:13.034Z,-3.50
2018-03-22T00:07:44.399Z,-3.40
2018-03-22T00:10:13.914Z,-3.50
2018-03-22T00:12:42.449Z,-3.40
2018-03-22T00:15:11.143Z,-3.40
2018-03-22T00:17:39.732Z,-3.40
2018-03-22T00:20:08.333Z,-3.40
2018-03-22T00:22:43.527Z,-3.50
2018-03-22T00:25:12.970Z,-3.60
2018-03-22T00:27:42.898Z,-3.70
2018-03-22T00:30:12.480Z,-3.70
2018-03-22T00:32:41.049Z,-3.70
2018-03-22T00:35:10.542Z,-3.70
2018-03-22T00:37:40.923Z,-3.70
2018-03-22T00:40:09.528Z,-3.80
2018-03-22T00:42:38.101Z,-3.70
2018-03-22T00:45:07.429Z,-3.50
2018-03-22T00:47:36.651Z,-3.40
2018-03-22T00:52:38.560Z,-3.40
2018-03-22T00:55:07.128Z,-3.30
2018-03-22T00:57:35.669Z,-3.20
2018-03-22T01:00:04.371Z,-3.40
2018-03-22T01:02:32.932Z,-3.40
2018-03-22T01:05:01.496Z,-3.30
2018-03-22T01:07:29.706Z,-3.50
2018-03-22T01:09:58.264Z,-3.50
2018-03-22T01:12:26.806Z,-3.60
2018-03-22T01:14:55.129Z,-3.50
2018-03-22T01:17:25.107Z,-3.50
2018-03-22T01:19:56.710Z,-4.90
2018-03-22T01:22:30.327Z,-3.60
2018-03-22T01:24:58.912Z,-3.50
2018-03-22T01:27:27.456Z,-3.40
2018-03-22T01:29:56.075Z,-3.60
2018-03-22T01:32:24.999Z,-3.60
2018-03-22T01:34:55.018Z,-3.60
2018-03-22T01:37:24.726Z,-3.60
2018-03-22T01:39:54.146Z,-3.60
2018-03-22T01:42:23.414Z,-3.70
2018-03-22T01:44:51.951Z,-3.70
2018-03-22T01:47:21.208Z,-3.70
2018-03-22T01:49:53.209Z,-3.80
2018-03-22T01:52:21.814Z,-3.60
2018-03-22T01:54:50.365Z,-3.70
2018-03-22T01:57:18.954Z,-3.60
2018-03-22T01:59:47.509Z,-3.50
2018-03-22T02:02:16.800Z,-3.50
2018-03-22T02:04:45.351Z,-3.50
2018-03-22T02:07:14.631Z,-3.60
2018-03-22T02:09:43.138Z,-3.60
2018-03-22T02:12:11.706Z,-3.60
2018-03-22T02:14:40.241Z,-3.80
2018-03-22T02:17:10.752Z,-3.90
2018-03-22T02:19:38.683Z,-3.80
2018-03-22T02:22:07.381Z,-4.00
2018-03-22T02:24:36.025Z,-4.00
2018-03-22T02:29:38.178Z,-4.10
2018-03-22T02:32:06.693Z,-4.10
2018-03-22T02:34:35.186Z,-4.10
2018-03-22T02:37:04.222Z,-4.10
2018-03-22T02:39:32.793Z,-4.10
2018-03-22T02:42:01.378Z,-4.10
2018-03-22T02:44:29.904Z,-4.00
2018-03-22T02:46:58.413Z,-3.90
2018-03-22T02:49:27.008Z,-4.10
2018-03-22T02:51:55.628Z,-4.00
2018-03-22T02:54:24.146Z,-4.10
2018-03-22T02:56:57.573Z,-4.10
2018-03-22T02:59:32.435Z,-4.10
2018-03-22T03:02:01.016Z,-4.30
2018-03-22T03:04:29.547Z,-4.30
2018-03-22T03:06:58.084Z,-4.10
2018-03-22T03:09:26.693Z,-4.00
2018-03-22T03:11:55.223Z,-4.10
2018-03-22T03:14:24.478Z,-4.10
2018-03-22T03:16:53.021Z,-4.20
2018-03-22T03:19:22.323Z,-4.10
2018-03-22T03:21:51.640Z,-4.10
2018-03-22T03:24:23.724Z,-4.20
2018-03-22T03:26:56.016Z,-4.20
2018-03-22T03:29:25.350Z,-4.20
2018-03-22T03:31:55.271Z,-4.20
2018-03-22T03:34:28.344Z,-4.30
2018-03-22T03:36:56.864Z,-4.20
2018-03-22T03:39:25.419Z,-4.20
2018-03-22T03:41:55.071Z,-6.80
2018-03-22T03:44:23.634Z,-4.30
2018-03-22T03:46:52.936Z,-4.40
2018-03-22T03:49:21.434Z,-4.40
2018-03-22T03:51:50.198Z,-4.40
2018-03-22T03:54:19.475Z,-4.40
2018-03-22T03:56:48.696Z,-4.50
2018-03-22T03:59:20.395Z,-4.30
2018-03-22T04:01:49.426Z,-4.40
2018-03-22T04:04:19.392Z,-4.30
2018-03-22T04:06:50.743Z,-4.40
2018-03-22T04:09:20.026Z,-4.30
2018-03-22T04:11:49.387Z,-4.30
2018-03-22T04:14:19.314Z,-4.30
2018-03-22T04:16:49.017Z,-4.30
2018-03-22T04:19:20.046Z,-4.20
2018-03-22T04:21:49.826Z,-4.30
2018-03-22T04:24:18.316Z,-4.30
2018-03-22T04:26:46.853Z,-4.30
2018-03-22T04:29:15.440Z,-4.30
2018-03-22T04:31:43.968Z,-4.30
2018-03-22T04:34:12.514Z,-4.30
2018-03-22T04:36:41.791Z,-4.40
2018-03-22T04:39:10.291Z,-4.40
2018-03-22T04:41:38.965Z,-4.40
2018-03-22T04:44:07.470Z,-4.30
2018-03-22T04:46:36.718Z,-4.30
2018-03-22T04:49:05.294Z,-4.30
2018-03-22T04:51:36.361Z,-4.30
2018-03-22T04:54:05.652Z,-4.30
2018-03-22T04:56:34.155Z,-4.30
2018-03-22T04:59:02.701Z,-4.30
2018-03-22T05:01:31.190Z,-4.10
2018-03-22T05:03:59.712Z,-4.10
2018-03-22T05:06:28.300Z,-6.60
2018-03-22T05:08:56.821Z,-4.00
2018-03-22T05:11:25.185Z,-3.90
2018-03-22T05:13:54.692Z,-4.00
2018-03-22T05:16:23.247Z,-4.10
2018-03-22T05:18:51.788Z,-4.10
2018-03-22T05:21:21.557Z,-4.20
2018-03-22T05:23:50.387Z,-4.10
2018-03-22T05:26:19.614Z,-4.20
2018-03-22T05:28:48.123Z,-4.10
2018-03-22T05:31:16.670Z,-4.00
2018-03-22T05:33:45.942Z,-4.10
2018-03-22T05:36:14.447Z,-4.10
2018-03-22T05:38:42.997Z,-4.00
2018-03-22T05:41:11.364Z,-4.10
2018-03-22T05:43:39.917Z,-4.00
2018-03-22T05:46:09.186Z,-4.20
2018-03-22T05:48:37.806Z,-4.30
2018-03-22T05:51:06.306Z,-4.20
2018-03-22T05:53:34.834Z,-4.20
2018-03-22T05:56:03.356Z,-4.20
2018-03-22T06:01:06.119Z,-6.20
2018-03-22T06:03:35.405Z,-4.20
2018-03-22T06:06:03.901Z,-4.20
2018-03-22T06:08:32.449Z,-4.10
2018-03-22T06:11:01.874Z,-4.10
2018-03-22T06:13:31.308Z,-4.20
2018-03-22T06:16:03.456Z,-4.10
2018-03-22T06:18:33.570Z,-4.00
2018-03-22T06:21:02.971Z,-3.90
2018-03-22T06:23:32.283Z,-3.90
2018-03-22T06:26:01.569Z,-3.90
2018-03-22T06:28:31.336Z,-3.90
2018-03-22T06:31:00.479Z,-3.90
2018-03-22T06:33:29.171Z,-3.80
2018-03-22T06:35:57.676Z,-3.80
2018-03-22T06:38:29.045Z,-3.80
2018-03-22T06:40:57.589Z,-3.80
2018-03-22T06:43:26.143Z,-3.70
2018-03-22T06:45:57.022Z,-3.70
2018-03-22T06:48:25.701Z,-3.70
2018-03-22T06:50:59.941Z,-3.70
2018-03-22T06:53:28.524Z,-3.50
2018-03-22T06:55:59.656Z,-3.60
2018-03-22T07:01:04.544Z,-3.50
2018-03-22T07:03:38.129Z,-3.20
2018-03-22T07:06:17.244Z,-3.20
2018-03-22T07:45:30.403Z,-3.10
2018-03-22T07:47:59.577Z,-2.80
2018-03-22T07:50:28.017Z,-2.80
2018-03-22T07:52:56.434Z,-2.70
2018-03-22T07:55:24.651Z,-2.70
2018-03-22T07:57:52.864Z,-2.60
2018-03-22T08:00:21.642Z,-2.60
2018-03-22T08:02:49.963Z,-2.40
2018-03-22T08:05:19.227Z,-2.40
2018-03-22T08:07:48.967Z,-2.50
2018-03-22T08:10:18.153Z,-2.40
2018-03-22T08:12:46.548Z,-2.40
2018-03-22T08:15:15.733Z,-2.20
2018-03-22T08:17:45.064Z,-2.00
2018-03-22T08:20:13.474Z,-2.00
2018-03-22T08:22:41.920Z,-2.20
2018-03-22T08:25:10.316Z,-2.30
2018-03-22T08:27:38.737Z,-2.40
2018-03-22T08:30:06.832Z,-2.30
2018-03-22T08:32:36.016Z,-2.10
2018-03-22T08:35:04.324Z,-2.10
2018-03-22T08:37:32.694Z,-2.20
2018-03-22T08:40:01.097Z,-2.20
2018-03-22T08:42:29.533Z,-1.90
2018-03-22T08:44:58.720Z,-2.00
2018-03-22T08:47:27.894Z,-2.10
2018-03-22T08:49:56.301Z,-2.10
2018-03-22T08:52:25.490Z,-2.00
2018-03-22T08:54:53.890Z,-2.00
2018-03-22T08:57:22.510Z,-1.90
2018-03-22T08:59:51.178Z,-1.80
2018-03-22T09:02:19.680Z,-1.80
2018-03-22T09:04:48.106Z,-1.70
2018-03-22T09:10:11.088Z,-1.70
2018-03-22T09:15:43.292Z,-1.50
2018-03-22T09:18:17.079Z,-1.80
2018-03-22T09:20:47.569Z,-1.60
2018-03-22T09:23:16.824Z,-1.40
2018-03-22T09:25:45.338Z,-1.40
2018-03-22T09:28:14.452Z,-1.50
2018-03-22T09:30:42.948Z,-1.40
2018-03-22T09:33:30.579Z,-1.40
2018-03-22T09:35:59.971Z,-1.30
2018-03-22T09:38:30.973Z,-1.30
2018-03-22T09:41:00.591Z,-1.40
2018-03-22T09:43:39.755Z,-1.20
2018-03-22T09:46:07.957Z,-1.00
2018-03-22T09:49:03.476Z,-1.10
2018-03-22T09:51:32.046Z,-1.00
2018-03-22T09:54:01.295Z,-1.00
2018-03-22T09:56:29.815Z,-1.00
2018-03-22T09:58:59.012Z,-1.00
2018-03-22T10:01:27.480Z,-1.00
2018-03-22T10:03:56.075Z,-1.10
2018-03-22T10:06:29.542Z,-0.90
2018-03-22T10:09:01.896Z,-0.90
2018-03-22T10:11:35.906Z,-0.90
2018-03-22T10:14:04.419Z,-0.90
2018-03-22T10:16:40.121Z,-0.90
2018-03-22T10:19:09.707Z,-0.80
2018-03-22T10:21:39.691Z,-0.60
2018-03-22T10:24:13.247Z,-0.60
2018-03-22T10:26:41.770Z,-0.60
2018-03-22T10:29:15.915Z,-0.50
2018-03-22T10:31:49.426Z,-0.40
2018-03-22T10:34:22.661Z,-0.40
2018-03-22T10:37:01.018Z,-0.30
2018-03-22T10:42:08.506Z,-0.30
2018-03-22T10:44:38.623Z,-0.20
2018-03-22T10:47:08.332Z,-0.40
2018-03-22T10:52:15.254Z,-0.30
2018-03-22T10:54:55.636Z,-0.20
2018-03-22T10:57:30.810Z,0.00
2018-03-22T11:03:22.231Z,0.00
2018-03-22T11:05:51.413Z,0.00
2018-03-22T11:08:19.803Z,0.00
2018-03-22T11:10:48.029Z,0.00
2018-03-22T11:13:16.417Z,-0.10
2018-03-22T11:15:44.802Z,0.00
2018-03-22T11:18:13.221Z,0.00
2018-03-22T11:20:42.390Z,0.10
2018-03-22T11:23:10.791Z,0.10
2018-03-22T11:25:39.974Z,0.40
2018-03-22T11:28:09.038Z,0.40
2018-03-22T11:30:37.956Z,0.40
2018-03-22T11:33:06.702Z,0.20
2018-03-22T11:35:35.097Z,0.30
2018-03-22T11:38:03.513Z,0.20
2018-03-22T11:40:31.901Z,0.20
2018-03-22T11:43:01.081Z,0.20
2018-03-22T11:45:29.479Z,0.20
2018-03-22T11:47:58.678Z,0.40
2018-03-22T11:50:27.252Z,0.40
2018-03-22T11:53:02.586Z,0.50
2018-03-22T11:56:09.931Z,0.60
2018-03-22T11:59:04.702Z,0.60
2018-03-22T12:02:21.832Z,0.50
2018-03-22T12:05:10.720Z,0.40
2018-03-22T12:07:42.792Z,0.60
2018-03-22T12:10:12.177Z,0.70
2018-03-22T12:12:41.482Z,0.70
2018-03-22T12:18:04.223Z,-0.50
2018-03-22T12:20:37.061Z,0.70
2018-03-22T12:23:05.760Z,0.70
2018-03-22T12:25:36.252Z,0.70
2018-03-22T12:28:05.356Z,0.70
2018-03-22T12:30:34.926Z,0.60
2018-03-22T12:33:05.640Z,0.60
2018-03-22T12:35:34.080Z,0.70
2018-03-22T12:38:02.590Z,0.60
2018-03-22T12:40:31.139Z,0.60
2018-03-22T12:43:03.884Z,0.60
2018-03-22T12:45:33.324Z,0.60
2018-03-22T12:48:01.866Z,0.60
2018-03-22T12:50:30.504Z,0.60
2018-03-22T12:52:59.047Z,0.50
2018-03-22T12:55:28.306Z,0.50
2018-03-22T12:57:57.997Z,0.50
2018-03-22T13:00:27.605Z,0.50
2018-03-22T13:05:30.895Z,0.40
2018-03-22T13:07:59.466Z,0.40
2018-03-22T13:10:28.687Z,0.50
2018-03-22T13:12:58.049Z,0.40
2018-03-22T13:18:21.381Z,0.40
2018-03-22T13:20:49.915Z,0.40
2018-03-22T13:23:20.015Z,0.50
2018-03-22T13:25:48.520Z,0.40
2018-03-22T13:28:19.165Z,0.40
2018-03-22T13:30:47.943Z,0.40
2018-03-22T13:33:16.493Z,0.40
2018-03-22T13:35:48.816Z,-0.40
2018-03-22T13:38:23.784Z,0.40
2018-03-22T13:40:52.375Z,0.30
2018-03-22T13:43:21.376Z,0.30
2018-03-22T13:45:51.249Z,0.40
2018-03-22T13:48:24.912Z,0.40
2018-03-22T13:50:55.522Z,0.50
2018-03-22T13:53:25.316Z,0.50
2018-03-22T13:55:53.785Z,0.50
2018-03-22T13:58:23.141Z,0.60
2018-03-22T14:00:52.742Z,0.60
2018-03-22T14:03:21.251Z,0.50
2018-03-22T14:05:50.580Z,0.50
2018-03-22T14:08:21.928Z,0.70
2018-03-22T14:10:50.408Z,0.70
2018-03-22T14:13:20.146Z,0.80
2018-03-22T14:15:48.626Z,0.70
2018-03-22T14:18:18.628Z,0.70
2018-03-22T14:20:49.378Z,0.70
2018-03-22T14:23:17.889Z,0.60
2018-03-22T14:25:49.521Z,0.60
2018-03-22T14:28:20.099Z,0.70
2018-03-22T14:30:49.839Z,0.70
2018-03-22T14:33:18.937Z,0.60
2018-03-22T14:35:47.472Z,0.70
2018-03-22T14:38:38.242Z,0.60
2018-03-22T14:41:08.376Z,0.70
2018-03-22T14:43:36.933Z,0.70
2018-03-22T14:46:05.493Z,0.70
2018-03-22T14:48:34.627Z,0.60
2018-03-22T14:51:04.029Z,0.60
2018-03-22T14:53:35.238Z,0.60
2018-03-22T14:56:03.921Z,0.50
2018-03-22T14:58:36.381Z,0.50
2018-03-22T15:01:09.076Z,0.50
2018-03-22T15:03:38.351Z,0.40
2018-03-22T15:06:09.460Z,0.40
2018-03-22T15:08:38.593Z,0.50
2018-03-22T15:11:08.166Z,0.50
2018-03-22T15:13:39.009Z,0.50
2018-03-22T15:16:09.948Z,0.40
2018-03-22T15:18:40.011Z,0.50
2018-03-22T15:21:09.346Z,0.60
2018-03-22T15:23:37.967Z,0.60
2018-03-22T15:26:06.559Z,0.50
2018-03-22T15:28:38.712Z,0.50
2018-03-22T15:31:07.246Z,0.40
2018-03-22T15:36:30.114Z,0.60
2018-03-22T15:39:00.262Z,0.60
2018-03-22T15:41:28.748Z,0.60
2018-03-22T15:43:57.295Z,0.50
2018-03-22T15:46:27.132Z,0.40
2018-03-22T15:48:59.481Z,0.30
2018-03-22T15:51:33.493Z,0.40
2018-03-22T15:54:02.030Z,0.40
2018-03-22T15:56:30.599Z,0.40
2018-03-22T15:58:59.092Z,0.50
2018-03-22T16:01:28.341Z,0.40
2018-03-22T16:03:56.949Z,0.50
2018-03-22T16:06:26.269Z,0.50
2018-03-22T16:08:57.787Z,0.40
2018-03-22T16:11:26.309Z,0.40
2018-03-22T16:13:57.916Z,0.40
2018-03-22T16:16:26.421Z,0.30
2018-03-22T16:18:55.707Z,0.40
2018-03-22T16:21:25.137Z,0.40
2018-03-22T16:23:54.647Z,0.30
2018-03-22T16:26:24.852Z,0.30
2018-03-22T16:28:54.164Z,0.20
2018-03-22T16:31:22.684Z,0.30
2018-03-22T16:33:52.028Z,0.30
2018-03-22T16:36:20.433Z,0.30
2018-03-22T16:38:48.861Z,0.30
2018-03-22T16:41:17.267Z,0.30
2018-03-22T16:43:45.670Z,0.30
2018-03-22T16:46:14.092Z,0.30
2018-03-22T16:48:43.577Z,0.30
2018-03-22T16:51:12.449Z,0.30
2018-03-22T16:53:40.886Z,0.20
2018-03-22T16:56:10.183Z,0.30
2018-03-22T16:58:39.269Z,0.20
2018-03-22T17:01:08.172Z,0.30
2018-03-22T17:03:36.801Z,0.30
2018-03-22T17:06:05.650Z,0.30
2018-03-22T17:08:34.038Z,0.30
2018-03-22T17:11:03.200Z,0.20
2018-03-22T17:13:31.612Z,0.20
2018-03-22T17:16:00.800Z,0.30
2018-03-22T17:18:29.216Z,0.30
2018-03-22T17:20:57.626Z,0.30
2018-03-22T17:23:26.032Z,0.30
2018-03-22T17:25:54.439Z,0.20
2018-03-22T17:28:32.559Z,0.30
2018-03-22T17:31:01.158Z,0.30
2018-03-22T17:33:29.551Z,0.20
2018-03-22T17:35:57.957Z,0.20
2018-03-22T17:38:26.390Z,0.20
2018-03-22T17:40:54.973Z,0.20
2018-03-22T17:43:23.373Z,0.20
2018-03-22T17:45:51.464Z,0.20
2018-03-22T17:48:19.890Z,0.20
2018-03-22T17:50:48.288Z,0.20
2018-03-22T17:53:16.687Z,0.20
2018-03-22T17:55:45.105Z,0.20
2018-03-22T17:58:13.518Z,0.20
2018-03-22T18:00:41.942Z,0.10
2018-03-22T18:03:10.928Z,0.10
2018-03-22T18:05:40.109Z,0.10
2018-03-22T18:08:09.105Z,0.00
2018-03-22T18:10:39.493Z,0.10
2018-03-22T18:13:10.745Z,0.00
2018-03-22T18:15:40.671Z,0.10
2018-03-22T18:18:09.183Z,0.10
2018-03-22T18:20:38.691Z,0.20
2018-03-22T18:23:07.399Z,0.20
2018-03-22T18:25:35.965Z,0.00
2018-03-22T18:28:04.508Z,0.10
2018-03-22T18:30:34.928Z,0.20
2018-03-22T18:33:05.041Z,0.20
2018-03-22T18:35:33.547Z,0.20
2018-03-22T18:38:02.071Z,0.20
2018-03-22T18:40:36.198Z,0.10
2018-03-22T18:43:08.370Z,0.10
2018-03-22T18:45:36.874Z,0.20
2018-03-22T18:48:07.076Z,0.20
2018-03-22T18:50:36.686Z,0.20
2018-03-22T18:53:07.413Z,0.20
2018-03-22T18:55:39.091Z,0.20
2018-03-22T19:00:43.331Z,0.10
2018-03-22T19:03:12.652Z,0.20
2018-03-22T19:05:41.957Z,0.20
2018-03-22T19:08:11.254Z,0.20
2018-03-22T19:10:39.799Z,0.20
2018-03-22T19:13:11.391Z,0.20
2018-03-22T19:15:41.154Z,0.20
2018-03-22T19:18:16.454Z,0.10
2018-03-22T19:20:44.987Z,0.20
2018-03-22T19:25:48.826Z,0.10
2018-03-22T19:28:17.451Z,0.10
2018-03-22T19:30:49.329Z,0.10
2018-03-22T19:33:17.813Z,0.00
2018-03-22T19:35:46.341Z,0.10
2018-03-22T19:38:15.784Z,0.20
2018-03-22T19:40:48.311Z,0.10
2018-03-22T19:43:18.949Z,0.10
2018-03-22T19:45:48.280Z,0.00
2018-03-22T19:48:16.819Z,-0.10
2018-03-22T19:50:46.091Z,0.10
2018-03-22T19:53:14.581Z,0.10
2018-03-22T19:55:45.019Z,0.00
2018-03-22T19:58:13.558Z,0.00
2018-03-22T20:00:44.178Z,0.00
2018-03-22T20:03:12.704Z,0.00
2018-03-22T20:05:41.242Z,0.00
2018-03-22T20:08:09.889Z,0.00
2018-03-22T20:10:39.716Z,0.10
2018-03-22T20:13:10.168Z,0.10
2018-03-22T20:15:39.124Z,0.10
2018-03-22T20:18:09.504Z,0.10
2018-03-22T20:23:31.347Z,-0.20
2018-03-22T20:26:00.608Z,0.00
2018-03-22T20:28:33.178Z,0.00
2018-03-22T20:31:04.789Z,0.10
2018-03-22T20:33:33.273Z,0.10
2018-03-22T20:36:02.664Z,0.20
2018-03-22T20:38:54.313Z,1.50
2018-03-22T20:41:23.612Z,-0.10
2018-03-22T20:43:52.138Z,0.10
2018-03-22T20:46:23.138Z,0.10
2018-03-22T20:48:51.678Z,0.10
2018-03-22T20:51:22.667Z,0.00
2018-03-22T20:53:51.215Z,0.10
2018-03-22T20:56:20.493Z,0.00
2018-03-22T20:58:49.088Z,0.10
2018-03-22T21:01:17.386Z,0.10
2018-03-22T21:03:50.741Z,0.10
2018-03-22T21:06:19.309Z,0.10
2018-03-22T21:08:47.851Z,0.10
2018-03-22T21:11:17.600Z,0.00
2018-03-22T21:13:53.223Z,-0.10
2018-03-22T21:16:22.267Z,0.00
2018-03-22T21:18:52.126Z,0.00
2018-03-22T21:21:21.288Z,0.00
2018-03-22T21:23:49.816Z,0.00
2018-03-22T21:26:20.024Z,0.00
2018-03-22T21:28:48.632Z,0.00
2018-03-22T21:31:18.178Z,0.00
2018-03-22T21:33:46.782Z,-0.10
2018-03-22T21:36:19.297Z,0.00
2018-03-22T21:38:56.131Z,0.00
2018-03-22T21:44:13.881Z,0.10
2018-03-22T21:46:43.128Z,0.10
2018-03-22T21:49:11.621Z,0.10
2018-03-22T21:51:39.841Z,0.10
2018-03-22T21:54:08.627Z,0.10
2018-03-22T21:56:37.938Z,0.00
2018-03-22T21:59:06.526Z,0.00
2018-03-22T22:01:35.143Z,0.10
2018-03-22T22:04:04.223Z,0.10
2018-03-22T22:06:32.779Z,0.00
2018-03-22T22:09:01.306Z,0.00
2018-03-22T22:11:31.663Z,0.10
2018-03-22T22:14:00.126Z,0.10
2018-03-22T22:16:29.489Z,0.10
2018-03-22T22:18:57.985Z,0.10
2018-03-22T22:21:27.573Z,0.10
2018-03-22T22:23:56.082Z,0.10
2018-03-22T22:26:25.030Z,0.00
2018-03-22T22:28:54.315Z,0.00
2018-03-22T22:31:22.821Z,0.00
2018-03-22T22:33:51.785Z,0.00
2018-03-22T22:36:20.133Z,-0.10
2018-03-22T22:38:48.443Z,-0.10
2018-03-22T22:41:17.800Z,-0.10
2018-03-22T22:43:47.150Z,0.00
2018-03-22T22:46:15.658Z,0.00
2018-03-22T22:48:44.151Z,0.00
2018-03-22T22:51:14.519Z,0.00
2018-03-22T22:53:42.998Z,0.00
2018-03-22T22:56:16.725Z,0.00
2018-03-22T22:58:46.005Z,0.10
2018-03-22T23:01:14.355Z,0.00
2018-03-22T23:03:42.875Z,0.00
2018-03-22T23:06:18.300Z,0.00
2018-03-22T23:08:46.788Z,0.00
2018-03-22T23:13:50.390Z,0.00
2018-03-22T23:16:18.887Z,0.00
2018-03-22T23:18:48.973Z,0.00
2018-03-22T23:21:18.252Z,0.00
2018-03-22T23:23:46.737Z,0.00
2018-03-22T23:26:15.049Z,0.00
2018-03-22T23:28:43.606Z,0.00
2018-03-22T23:31:12.273Z,0.00
2018-03-22T23:33:40.782Z,0.10
2018-03-22T23:36:09.045Z,0.10
2018-03-22T23:38:38.308Z,0.20
2018-03-22T23:41:06.814Z,0.20
2018-03-22T23:43:36.116Z,0.10
2018-03-22T23:46:04.280Z,0.00
2018-03-22T23:48:32.793Z,0.10
2018-03-22T23:51:01.345Z,0.20
2018-03-22T23:53:30.751Z,0.20
2018-03-22T23:55:59.272Z,0.10
2018-03-22T23:58:29.314Z,0.20
